createdAt,value
2024-05-09T00:00:54.318Z,21.17
2024-05-09T00:03:25.728Z,25.40
2024-05-09T00:06:00.495Z,18.90
2024-05-09T00:08:32.179Z,21.50
2024-05-09T00:11:04.137Z,21.80
2024-05-09T00:13:35.593Z,21.37
2024-05-09T00:16:06.817Z,20.27
2024-05-09T00:18:38.269Z,23.27
2024-05-09T00:21:13.507Z,21.97
2024-05-09T00:23:44.998Z,23.23
2024-05-09T00:26:20.453Z,23.13
2024-05-09T00:28:51.967Z,23.93
2024-05-09T00:31:23.427Z,20.93
2024-05-09T00:33:55.064Z,23.30
2024-05-09T00:36:29.637Z,25.80
2024-05-09T00:39:01.039Z,27.70
2024-05-09T00:41:32.636Z,26.77
2024-05-09T00:44:04.942Z,22.43
2024-05-09T00:46:36.653Z,21.20
2024-05-09T00:49:08.164Z,24.47
2024-05-09T00:51:43.792Z,22.40
2024-05-09T00:54:15.472Z,27.03
2024-05-09T00:56:47.172Z,25.97
2024-05-09T00:59:18.999Z,26.70
2024-05-09T01:01:51.204Z,26.57
2024-05-09T01:04:22.762Z,24.37
2024-05-09T01:06:57.337Z,31.03
2024-05-09T01:09:29.074Z,26.93
2024-05-09T01:12:00.862Z,27.27
2024-05-09T01:14:32.450Z,24.90
2024-05-09T01:17:03.946Z,24.20
2024-05-09T01:19:36.596Z,27.47
2024-05-09T01:22:11.414Z,28.90
2024-05-09T01:24:45.819Z,28.57
2024-05-09T01:27:17.429Z,26.13
2024-05-09T01:29:48.929Z,26.97
2024-05-09T01:32:20.397Z,28.87
2024-05-09T01:34:51.985Z,29.27
2024-05-09T01:37:23.430Z,30.57
2024-05-09T01:39:57.942Z,30.90
2024-05-09T01:42:29.411Z,27.47
2024-05-09T01:45:00.895Z,29.33
2024-05-09T01:47:32.470Z,28.73
2024-05-09T01:50:06.604Z,28.23
2024-05-09T01:52:40.220Z,26.97
2024-05-09T01:55:14.819Z,32.87
2024-05-09T01:57:46.163Z,28.57
2024-05-09T02:00:30.146Z,30.57
2024-05-09T02:03:10.041Z,30.00
2024-05-09T02:05:42.290Z,30.50
2024-05-09T02:08:18.922Z,32.13
2024-05-09T02:10:53.915Z,31.47
2024-05-09T02:13:25.539Z,30.70
2024-05-09T02:15:56.986Z,29.60
2024-05-09T02:18:28.546Z,26.50
2024-05-09T02:21:00.518Z,30.70
2024-05-09T02:23:32.082Z,23.93
2024-05-09T02:26:06.784Z,27.70
2024-05-09T02:28:42.896Z,24.50
2024-05-09T02:31:16.442Z,23.97
2024-05-09T02:33:48.510Z,27.17
2024-05-09T02:36:20.472Z,27.43
2024-05-09T02:38:49.100Z,26.23
2024-05-09T02:41:27.786Z,27.03
2024-05-09T02:43:56.510Z,26.90
2024-05-09T02:46:28.317Z,27.50
2024-05-09T02:48:56.934Z,29.27
2024-05-09T02:51:28.599Z,25.93
2024-05-09T02:53:57.239Z,27.63
2024-05-09T02:56:32.222Z,32.97
2024-05-09T02:59:00.897Z,31.27
2024-05-09T03:01:32.624Z,30.70
2024-05-09T03:04:01.383Z,31.80
2024-05-09T03:06:33.150Z,27.00
2024-05-09T03:09:01.680Z,31.90
2024-05-09T03:11:36.796Z,31.00
2024-05-09T03:14:05.506Z,37.67
2024-05-09T03:16:42.194Z,38.50
2024-05-09T03:19:11.238Z,34.47
2024-05-09T03:21:43.661Z,34.37
2024-05-09T03:24:12.334Z,33.50
2024-05-09T03:26:47.619Z,31.47
2024-05-09T03:29:16.186Z,36.27
2024-05-09T03:31:47.998Z,44.97
2024-05-09T03:34:16.760Z,45.63
2024-05-09T03:36:49.369Z,43.20
2024-05-09T03:39:21.227Z,46.70
2024-05-09T03:41:56.145Z,45.20
2024-05-09T03:44:27.981Z,46.03
2024-05-09T03:46:59.715Z,51.37
2024-05-09T03:49:28.325Z,50.10
2024-05-09T03:52:06.144Z,50.20
2024-05-09T03:54:36.040Z,52.83
2024-05-09T03:57:11.014Z,53.90
2024-05-09T03:59:39.595Z,53.77
2024-05-09T04:02:11.345Z,55.40
2024-05-09T04:04:42.707Z,51.93
2024-05-09T04:07:14.584Z,50.80
2024-05-09T04:09:43.180Z,46.63
2024-05-09T04:12:18.223Z,51.57
2024-05-09T04:14:46.834Z,45.17
2024-05-09T04:17:18.713Z,41.90
2024-05-09T04:19:47.306Z,39.90
2024-05-09T04:22:19.176Z,35.93
2024-05-09T04:24:48.137Z,32.33
2024-05-09T04:27:23.006Z,28.97
2024-05-09T04:29:51.588Z,33.37
2024-05-09T04:32:23.390Z,28.10
2024-05-09T04:34:51.978Z,27.47
2024-05-09T04:37:23.560Z,29.00
2024-05-09T04:39:51.984Z,25.23
2024-05-09T04:42:26.815Z,20.30
2024-05-09T04:44:58.693Z,24.03
2024-05-09T04:47:30.693Z,19.87
2024-05-09T04:49:59.500Z,23.77
2024-05-09T04:52:31.143Z,20.90
2024-05-09T04:54:59.734Z,18.60
2024-05-09T04:57:34.599Z,18.00
2024-05-09T05:00:07.201Z,16.50
2024-05-09T05:02:41.209Z,17.07
2024-05-09T05:05:11.708Z,18.10
2024-05-09T05:07:43.800Z,15.20
2024-05-09T05:10:17.916Z,14.57
2024-05-09T05:13:15.013Z,13.03
2024-05-09T05:15:47.502Z,12.90
2024-05-09T05:18:16.970Z,12.30
2024-05-09T05:20:49.100Z,10.73
2024-05-09T05:23:20.423Z,10.07
2024-05-09T05:25:53.731Z,9.73
2024-05-09T05:28:26.027Z,9.02
2024-05-09T05:30:57.813Z,9.40
2024-05-09T05:33:26.664Z,8.82
2024-05-09T05:35:58.602Z,8.77
2024-05-09T05:38:28.387Z,8.55
2024-05-09T05:41:00.763Z,8.43
2024-05-09T05:43:32.515Z,8.50
2024-05-09T05:46:04.322Z,8.00
2024-05-09T05:48:33.140Z,8.25
2024-05-09T05:51:06.237Z,7.80
2024-05-09T05:53:34.998Z,8.32
2024-05-09T05:56:06.777Z,7.55
2024-05-09T05:58:39.178Z,8.35
2024-05-09T06:01:10.902Z,8.00
2024-05-09T06:03:39.821Z,7.65
2024-05-09T06:06:11.682Z,7.70
2024-05-09T06:08:40.419Z,7.30
2024-05-09T06:11:12.251Z,8.32
2024-05-09T06:13:46.926Z,7.47
2024-05-09T06:16:18.737Z,7.93
2024-05-09T06:18:47.418Z,8.07
2024-05-09T06:21:21.117Z,9.10
2024-05-09T06:23:50.557Z,8.70
2024-05-09T06:26:22.302Z,8.40
2024-05-09T06:28:53.932Z,9.63
2024-05-09T06:31:25.608Z,8.55
2024-05-09T06:33:54.380Z,8.73
2024-05-09T06:36:26.160Z,10.68
2024-05-09T06:38:54.673Z,8.67
2024-05-09T06:41:26.497Z,9.60
2024-05-09T06:43:58.453Z,9.60
2024-05-09T06:46:30.201Z,10.23
2024-05-09T06:49:00.925Z,9.60
2024-05-09T06:51:32.645Z,9.27
2024-05-09T06:54:01.183Z,9.50
2024-05-09T06:56:32.920Z,10.88
2024-05-09T06:59:05.399Z,11.83
2024-05-09T07:01:37.132Z,10.07
2024-05-09T07:04:06.148Z,8.33
2024-05-09T07:06:37.982Z,9.23
2024-05-09T07:09:06.538Z,8.90
2024-05-09T07:11:38.359Z,9.82
2024-05-09T07:14:10.123Z,8.90
2024-05-09T07:16:41.871Z,9.07
2024-05-09T07:19:10.541Z,9.00
2024-05-09T07:21:42.090Z,10.55
2024-05-09T07:24:10.666Z,10.43
2024-05-09T07:26:42.296Z,8.18
2024-05-09T07:29:14.098Z,8.25
2024-05-09T07:31:45.835Z,8.32
2024-05-09T07:34:17.605Z,9.65
2024-05-09T07:36:46.920Z,9.60
2024-05-09T07:39:18.544Z,7.85
2024-05-09T07:41:47.138Z,7.70
2024-05-09T07:44:22.169Z,8.27
2024-05-09T07:47:52.306Z,7.80
2024-05-09T07:51:32.274Z,10.48
2024-05-09T07:53:32.648Z,7.10
2024-05-09T07:55:22.739Z,8.57
2024-05-09T07:57:51.793Z,8.55
2024-05-09T08:00:31.121Z,8.05
2024-05-09T08:03:00.769Z,8.90
2024-05-09T08:05:32.682Z,7.45
2024-05-09T08:08:01.308Z,8.02
2024-05-09T08:10:35.562Z,7.75
2024-05-09T08:13:04.828Z,7.90
2024-05-09T08:15:40.240Z,9.50
2024-05-09T08:18:10.006Z,10.10
2024-05-09T08:20:42.739Z,9.25
2024-05-09T08:23:12.198Z,6.97
2024-05-09T08:25:46.176Z,8.20
2024-05-09T08:28:15.960Z,6.15
2024-05-09T08:30:51.340Z,4.63
2024-05-09T08:33:20.189Z,6.68
2024-05-09T08:35:51.785Z,4.95
2024-05-09T08:38:20.325Z,6.90
2024-05-09T08:40:52.628Z,5.28
2024-05-09T08:43:21.644Z,10.85
2024-05-09T08:45:57.157Z,5.20
2024-05-09T08:48:27.149Z,5.88
2024-05-09T08:51:00.014Z,4.13
2024-05-09T08:53:28.685Z,5.28
2024-05-09T08:56:05.033Z,5.18
2024-05-09T08:58:35.103Z,7.57
2024-05-09T09:01:11.847Z,6.72
2024-05-09T09:03:41.988Z,4.47
2024-05-09T09:06:16.054Z,4.22
2024-05-09T09:08:46.570Z,6.30
2024-05-09T09:11:18.390Z,3.28
2024-05-09T09:13:47.002Z,5.18
2024-05-09T09:16:21.991Z,5.45
2024-05-09T09:18:51.910Z,3.95
2024-05-09T09:21:23.805Z,7.07
2024-05-09T09:23:52.407Z,7.75
2024-05-09T09:26:24.139Z,5.72
2024-05-09T09:28:53.273Z,6.15
2024-05-09T09:31:28.402Z,4.47
2024-05-09T09:33:57.296Z,8.57
2024-05-09T09:36:33.491Z,7.32
2024-05-09T09:39:02.288Z,8.60
2024-05-09T09:41:35.943Z,5.05
2024-05-09T09:44:07.713Z,6.10
2024-05-09T09:46:43.610Z,5.38
2024-05-09T09:49:13.379Z,4.10
2024-05-09T09:51:47.196Z,3.72
2024-05-09T09:54:16.053Z,3.80
2024-05-09T09:56:49.298Z,3.80
2024-05-09T09:59:18.218Z,4.22
2024-05-09T10:01:53.396Z,4.95
2024-05-09T10:04:22.142Z,3.60
2024-05-09T10:06:56.240Z,3.80
2024-05-09T10:09:24.878Z,4.32
2024-05-09T10:12:00.218Z,3.72
2024-05-09T10:14:31.482Z,3.13
2024-05-09T10:17:11.593Z,4.88
2024-05-09T10:19:40.198Z,3.60
2024-05-09T10:22:12.401Z,4.35
2024-05-09T10:24:50.622Z,4.38
2024-05-09T10:27:30.876Z,7.30
2024-05-09T10:30:00.756Z,4.43
2024-05-09T10:32:42.967Z,5.40
2024-05-09T10:35:12.498Z,5.18
2024-05-09T10:37:46.016Z,4.95
2024-05-09T10:40:25.745Z,5.55
2024-05-09T10:43:04.628Z,2.78
2024-05-09T10:45:36.573Z,2.83
2024-05-09T10:48:12.931Z,2.83
2024-05-09T10:50:44.321Z,8.02
2024-05-09T10:53:16.108Z,4.00
2024-05-09T10:55:44.643Z,4.15
2024-05-09T10:58:21.637Z,7.82
2024-05-09T11:00:51.155Z,7.35
2024-05-09T11:03:27.327Z,4.35
2024-05-09T11:05:56.790Z,5.80
2024-05-09T11:08:29.299Z,3.65
2024-05-09T11:11:00.073Z,3.70
2024-05-09T11:13:32.731Z,4.05
2024-05-09T11:16:01.938Z,3.78
2024-05-09T11:18:39.228Z,4.20
2024-05-09T11:21:14.025Z,5.95
2024-05-09T11:23:46.110Z,3.63
2024-05-09T11:26:17.709Z,4.20
2024-05-09T11:28:51.169Z,3.63
2024-05-09T11:31:19.754Z,2.83
2024-05-09T11:33:57.686Z,4.35
2024-05-09T11:36:26.250Z,5.00
2024-05-09T11:38:57.930Z,4.00
2024-05-09T11:41:27.771Z,4.97
2024-05-09T11:43:59.537Z,6.70
2024-05-09T11:46:28.620Z,4.78
2024-05-09T11:49:03.713Z,3.67
2024-05-09T11:51:32.431Z,4.55
2024-05-09T11:54:04.170Z,3.03
2024-05-09T11:56:32.906Z,3.17
2024-05-09T11:59:04.715Z,5.80
2024-05-09T12:01:33.352Z,3.10
2024-05-09T12:04:08.722Z,2.80
2024-05-09T12:06:37.466Z,6.88
2024-05-09T12:09:09.162Z,4.63
2024-05-09T12:11:37.722Z,5.10
2024-05-09T12:14:09.471Z,3.25
2024-05-09T12:16:38.726Z,3.33
2024-05-09T12:19:13.806Z,3.28
2024-05-09T12:21:42.568Z,3.35
2024-05-09T12:24:17.746Z,7.07
2024-05-09T12:26:47.073Z,3.83
2024-05-09T12:29:18.796Z,6.15
2024-05-09T12:31:47.344Z,3.90
2024-05-09T12:34:22.271Z,4.03
2024-05-09T12:36:50.905Z,7.07
2024-05-09T12:39:22.695Z,2.80
2024-05-09T12:41:51.158Z,3.00
2024-05-09T12:44:22.833Z,2.70
2024-05-09T12:46:51.544Z,4.50
2024-05-09T12:49:26.698Z,2.95
2024-05-09T12:51:55.562Z,3.13
2024-05-09T12:54:27.383Z,2.55
2024-05-09T12:56:55.978Z,3.70
2024-05-09T12:59:27.689Z,2.97
2024-05-09T13:01:57.373Z,4.82
2024-05-09T13:04:33.920Z,4.57
2024-05-09T13:07:04.315Z,8.82
2024-05-09T13:09:37.587Z,4.90
2024-05-09T13:12:06.990Z,3.92
2024-05-09T13:14:38.812Z,5.90
2024-05-09T13:17:09.254Z,2.55
2024-05-09T13:19:44.295Z,3.47
2024-05-09T13:22:12.989Z,5.05
2024-05-09T13:24:44.937Z,3.80
2024-05-09T13:27:13.511Z,4.65
2024-05-09T13:29:45.042Z,5.85
2024-05-09T13:32:13.581Z,3.65
2024-05-09T13:34:48.451Z,4.93
2024-05-09T13:37:17.072Z,3.42
2024-05-09T13:39:48.659Z,4.47
2024-05-09T13:42:17.594Z,4.32
2024-05-09T13:44:49.245Z,3.08
2024-05-09T13:47:18.192Z,3.63
2024-05-09T13:49:53.268Z,2.55
2024-05-09T13:52:21.912Z,3.35
2024-05-09T13:54:53.547Z,3.05
2024-05-09T13:57:22.188Z,3.78
2024-05-09T13:59:53.928Z,6.30
2024-05-09T14:02:22.533Z,2.42
2024-05-09T14:04:57.746Z,5.03
2024-05-09T14:07:26.507Z,2.30
2024-05-09T14:09:58.374Z,3.03
2024-05-09T14:12:26.990Z,5.32
2024-05-09T14:14:58.708Z,5.45
2024-05-09T14:17:27.326Z,3.17
2024-05-09T14:20:02.394Z,3.38
2024-05-09T14:22:31.727Z,3.92
2024-05-09T14:25:03.418Z,3.63
2024-05-09T14:27:32.871Z,3.25
2024-05-09T14:30:07.333Z,2.65
2024-05-09T14:32:38.174Z,3.05
2024-05-09T14:35:13.154Z,2.63
2024-05-09T14:37:42.557Z,3.45
2024-05-09T14:40:30.490Z,2.85
2024-05-09T14:43:04.650Z,3.08
2024-05-09T14:45:36.702Z,5.18
2024-05-09T14:48:09.855Z,4.63
2024-05-09T14:50:42.324Z,3.50
2024-05-09T14:53:15.328Z,3.55
2024-05-09T14:55:44.276Z,4.90
2024-05-09T14:58:16.573Z,2.63
2024-05-09T15:00:50.394Z,4.05
2024-05-09T15:03:23.662Z,3.70
2024-05-09T15:05:55.613Z,2.60
2024-05-09T15:08:27.447Z,3.15
2024-05-09T15:10:56.109Z,3.38
2024-05-09T15:13:29.460Z,4.32
2024-05-09T15:15:58.147Z,3.75
2024-05-09T15:18:30.175Z,3.80
2024-05-09T15:21:02.205Z,2.40
2024-05-09T15:23:34.062Z,2.90
2024-05-09T15:26:02.672Z,3.00
2024-05-09T15:28:34.861Z,3.25
2024-05-09T15:31:03.457Z,3.65
2024-05-09T15:33:35.310Z,2.55
2024-05-09T15:36:08.001Z,2.55
2024-05-09T15:38:39.929Z,4.25
2024-05-09T15:41:08.631Z,4.15
2024-05-09T15:43:40.428Z,4.68
2024-05-09T15:46:09.084Z,4.78
2024-05-09T15:48:44.816Z,4.32
2024-05-09T15:51:16.790Z,5.68
2024-05-09T15:53:48.792Z,5.88
2024-05-09T15:56:17.746Z,3.63
2024-05-09T15:58:49.581Z,2.30
2024-05-09T16:01:18.376Z,3.88
2024-05-09T16:03:50.493Z,4.60
2024-05-09T16:06:23.153Z,3.80
2024-05-09T16:08:54.888Z,3.08
2024-05-09T16:11:24.050Z,5.57
2024-05-09T16:13:55.611Z,3.45
2024-05-09T16:16:24.358Z,2.92
2024-05-09T16:18:56.276Z,3.17
2024-05-09T16:21:28.079Z,5.10
2024-05-09T16:23:59.806Z,3.88
2024-05-09T16:26:28.441Z,3.55
2024-05-09T16:29:00.248Z,3.05
2024-05-09T16:31:28.997Z,4.43
2024-05-09T16:34:00.785Z,3.70
2024-05-09T16:36:32.729Z,4.95
2024-05-09T16:39:04.440Z,4.60
2024-05-09T16:41:36.763Z,3.80
2024-05-09T16:44:05.402Z,4.78
2024-05-09T16:46:37.205Z,3.67
2024-05-09T16:49:06.261Z,3.33
2024-05-09T16:51:40.985Z,4.07
2024-05-09T16:54:09.468Z,3.20
2024-05-09T16:56:41.162Z,2.92
2024-05-09T16:59:09.730Z,3.22
2024-05-09T17:01:41.443Z,3.47
2024-05-09T17:04:10.084Z,4.00
2024-05-09T17:06:45.035Z,3.08
2024-05-09T17:09:15.687Z,4.43
2024-05-09T17:11:50.409Z,5.35
2024-05-09T17:14:22.031Z,3.08
2024-05-09T17:16:53.800Z,4.18
2024-05-09T17:19:25.636Z,4.05
2024-05-09T17:21:57.478Z,4.57
2024-05-09T17:24:29.273Z,3.67
2024-05-09T17:26:57.795Z,3.20
2024-05-09T17:29:29.548Z,3.38
2024-05-09T17:31:58.069Z,2.53
2024-05-09T17:34:29.814Z,2.60
2024-05-09T17:37:01.768Z,3.08
2024-05-09T17:39:33.423Z,3.35
2024-05-09T17:42:01.894Z,3.28
2024-05-09T17:44:33.454Z,4.43
2024-05-09T17:47:02.147Z,5.07
2024-05-09T17:49:33.903Z,2.50
2024-05-09T17:52:06.145Z,4.80
2024-05-09T17:54:37.922Z,2.90
2024-05-09T17:57:06.915Z,4.57
2024-05-09T17:59:38.668Z,4.32
2024-05-09T18:02:07.667Z,2.85
2024-05-09T18:04:39.544Z,3.70
2024-05-09T18:07:11.675Z,3.75
2024-05-09T18:09:43.616Z,3.60
2024-05-09T18:12:15.530Z,3.17
2024-05-09T18:14:44.081Z,3.50
2024-05-09T18:17:15.499Z,3.20
2024-05-09T18:19:43.993Z,3.60
2024-05-09T18:22:18.781Z,3.85
2024-05-09T18:24:47.344Z,4.18
2024-05-09T18:27:18.836Z,3.60
2024-05-09T18:29:47.316Z,2.63
2024-05-09T18:32:18.778Z,3.60
2024-05-09T18:34:47.256Z,4.00
2024-05-09T18:37:22.025Z,2.40
2024-05-09T18:39:50.487Z,4.25
2024-05-09T18:42:21.990Z,4.10
2024-05-09T18:44:50.416Z,4.30
2024-05-09T18:47:22.130Z,2.88
2024-05-09T18:49:51.571Z,8.23
2024-05-09T18:52:26.304Z,4.47
2024-05-09T18:54:54.864Z,4.25
2024-05-09T18:57:26.503Z,4.60
2024-05-09T18:59:54.923Z,3.10
2024-05-09T19:02:26.488Z,2.70
2024-05-09T19:04:55.105Z,3.53
2024-05-09T19:07:29.897Z,3.80
2024-05-09T19:09:59.372Z,7.13
2024-05-09T19:12:30.851Z,2.88
2024-05-09T19:14:59.321Z,3.45
2024-05-09T19:17:32.186Z,7.05
2024-05-09T19:20:00.869Z,4.95
2024-05-09T19:22:35.703Z,4.00
2024-05-09T19:25:04.304Z,5.57
2024-05-09T19:27:35.890Z,5.05
2024-05-09T19:30:09.587Z,9.38
2024-05-09T19:32:46.029Z,7.45
2024-05-09T19:35:14.545Z,7.03
2024-05-09T19:37:51.855Z,3.88
2024-05-09T19:40:28.607Z,6.45
2024-05-09T19:43:03.944Z,4.57
2024-05-09T19:45:33.742Z,6.25
2024-05-09T19:48:06.820Z,4.90
2024-05-09T19:50:41.968Z,5.25
2024-05-09T19:53:18.888Z,5.18
2024-05-09T19:55:47.383Z,4.63
2024-05-09T19:58:18.999Z,5.82
2024-05-09T20:00:48.124Z,4.70
2024-05-09T20:03:20.011Z,6.13
2024-05-09T20:05:48.797Z,4.25
2024-05-09T20:08:23.637Z,5.30
2024-05-09T20:10:52.288Z,9.05
2024-05-09T20:13:24.204Z,5.47
2024-05-09T20:15:53.047Z,5.72
2024-05-09T20:18:24.655Z,8.70
2024-05-09T20:20:54.111Z,6.93
2024-05-09T20:23:29.662Z,6.45
2024-05-09T20:25:58.032Z,9.98
2024-05-09T20:28:29.607Z,6.90
2024-05-09T20:30:58.208Z,6.05
2024-05-09T20:33:30.376Z,6.50
2024-05-09T20:36:01.797Z,5.90
2024-05-09T20:38:36.833Z,7.18
2024-05-09T20:41:05.525Z,6.28
2024-05-09T20:43:37.147Z,5.57
2024-05-09T20:46:05.925Z,7.18
2024-05-09T20:48:38.061Z,7.53
2024-05-09T20:51:06.921Z,8.07
2024-05-09T20:53:41.835Z,8.27
2024-05-09T20:56:10.466Z,7.72
2024-05-09T20:58:42.170Z,12.85
2024-05-09T21:01:10.641Z,6.50
2024-05-09T21:03:44.814Z,7.38
2024-05-09T21:06:13.363Z,7.20
2024-05-09T21:08:48.293Z,7.80
2024-05-09T21:11:16.839Z,10.85
2024-05-09T21:13:49.349Z,8.00
2024-05-09T21:16:18.237Z,10.83
2024-05-09T21:18:50.070Z,10.23
2024-05-09T21:21:18.615Z,8.87
2024-05-09T21:23:53.447Z,11.27
2024-05-09T21:26:24.404Z,8.55
2024-05-09T21:28:56.143Z,10.40
2024-05-09T21:31:24.738Z,6.97
2024-05-09T21:33:56.570Z,6.87
2024-05-09T21:36:25.132Z,6.40
2024-05-09T21:39:00.019Z,8.23
2024-05-09T21:41:28.583Z,8.45
2024-05-09T21:44:00.262Z,6.23
2024-05-09T21:46:28.973Z,11.10
2024-05-09T21:49:00.869Z,7.43
2024-05-09T21:51:29.597Z,8.17
2024-05-09T21:54:04.561Z,8.73
2024-05-09T21:56:33.175Z,5.15
2024-05-09T21:59:05.008Z,6.60
2024-05-09T22:01:34.640Z,7.47
2024-05-09T22:04:06.487Z,8.17
2024-05-09T22:06:35.519Z,7.07
2024-05-09T22:09:10.400Z,5.73
2024-05-09T22:11:39.047Z,5.63
2024-05-09T22:14:10.961Z,8.30
2024-05-09T22:16:41.503Z,10.17
2024-05-09T22:19:13.241Z,5.77
2024-05-09T22:21:41.897Z,6.07
2024-05-09T22:24:16.838Z,6.67
2024-05-09T22:26:45.354Z,7.78
2024-05-09T22:29:17.094Z,6.13
2024-05-09T22:31:45.622Z,8.83
2024-05-09T22:34:17.500Z,7.63
2024-05-09T22:36:46.257Z,7.15
2024-05-09T22:39:21.353Z,8.13
2024-05-09T22:41:49.942Z,7.03
2024-05-09T22:44:21.753Z,5.63
2024-05-09T22:46:50.464Z,5.90
2024-05-09T22:49:22.361Z,6.03
2024-05-09T22:51:50.977Z,6.07
2024-05-09T22:54:25.998Z,6.20
2024-05-09T22:56:54.500Z,7.67
2024-05-09T22:59:26.302Z,6.03
2024-05-09T23:01:54.918Z,6.60
2024-05-09T23:04:26.828Z,6.87
2024-05-09T23:06:55.567Z,6.97
2024-05-09T23:09:30.551Z,6.53
2024-05-09T23:11:59.235Z,5.77
2024-05-09T23:14:31.028Z,5.80
2024-05-09T23:16:59.647Z,6.43
2024-05-09T23:19:31.617Z,7.53
2024-05-09T23:22:00.501Z,7.73
2024-05-09T23:24:36.510Z,6.50
2024-05-09T23:27:05.559Z,7.07
2024-05-09T23:29:37.518Z,6.97
2024-05-09T23:32:06.618Z,7.50
2024-05-09T23:34:38.489Z,7.83
2024-05-09T23:37:07.053Z,7.10
2024-05-09T23:39:42.027Z,7.93
2024-05-09T23:42:10.637Z,8.27
2024-05-09T23:44:42.534Z,7.67
2024-05-09T23:47:11.190Z,6.67
2024-05-09T23:49:43.029Z,9.43
2024-05-09T23:52:11.607Z,9.37
2024-05-09T23:54:46.984Z,7.77
2024-05-09T23:57:15.601Z,9.37
2024-05-09T23:59:47.438Z,9.33
